createdAt,value
2022-11-01T00:02:02.772Z,16.79
2022-11-01T00:04:31.138Z,16.88
2022-11-01T00:06:59.465Z,15.06
2022-11-01T00:09:27.798Z,16.63
2022-11-01T00:11:56.218Z,16.90
2022-11-01T00:14:24.486Z,16.92
2022-11-01T00:16:53.101Z,16.82
2022-11-01T00:19:22.804Z,16.92
2022-11-01T00:21:51.117Z,16.98
2022-11-01T00:24:19.398Z,16.83
2022-11-01T00:29:20.952Z,16.93
2022-11-01T00:31:49.434Z,17.00
2022-11-01T00:34:18.075Z,17.10
2022-11-01T00:36:47.800Z,16.94
2022-11-01T00:39:16.881Z,16.87
2022-11-01T00:41:45.198Z,17.07
2022-11-01T00:44:13.700Z,17.22
2022-11-01T00:46:42.059Z,17.00
2022-11-01T00:49:10.335Z,17.21
2022-11-01T00:51:38.586Z,17.28
2022-11-01T00:54:08.552Z,17.30
2022-11-01T00:56:36.879Z,17.15
2022-11-01T00:59:05.752Z,17.38
2022-11-01T01:01:35.949Z,17.40
2022-11-01T01:04:04.621Z,17.34
2022-11-01T01:06:32.979Z,17.38
2022-11-01T01:09:02.352Z,17.54
2022-11-01T01:11:31.983Z,17.41
2022-11-01T01:14:01.709Z,17.67
2022-11-01T01:16:30.192Z,17.67
2022-11-01T01:18:59.965Z,17.72
2022-11-01T01:21:28.253Z,17.78
2022-11-01T01:23:56.631Z,17.67
2022-11-01T01:26:24.936Z,17.80
2022-11-01T01:28:56.407Z,17.79
2022-11-01T01:31:24.738Z,17.86
2022-11-01T01:33:53.080Z,17.94
2022-11-01T01:36:21.413Z,18.10
2022-11-01T01:38:52.866Z,18.16
2022-11-01T01:41:53.239Z,16.57
2022-11-01T01:45:16.745Z,18.15
2022-11-01T01:47:53.176Z,18.17
2022-11-01T01:50:28.403Z,18.21
2022-11-01T01:53:03.542Z,18.16
2022-11-01T01:55:38.354Z,18.07
2022-11-01T01:58:08.533Z,17.93
2022-11-01T02:00:36.930Z,17.91
2022-11-01T02:03:08.451Z,17.80
2022-11-01T02:05:45.967Z,17.74
2022-11-01T02:08:15.904Z,17.62
2022-11-01T02:10:44.671Z,17.77
2022-11-01T02:13:15.019Z,17.77
2022-11-01T02:15:59.393Z,17.72
2022-11-01T02:18:37.257Z,17.73
2022-11-01T02:21:40.597Z,17.59
2022-11-01T02:24:52.137Z,17.33
2022-11-01T02:27:28.493Z,17.45
2022-11-01T02:30:13.384Z,17.17
2022-11-01T02:33:06.171Z,17.35
2022-11-01T02:35:50.672Z,17.41
2022-11-01T02:38:27.845Z,17.15
2022-11-01T02:41:04.897Z,17.20
2022-11-01T02:43:43.618Z,17.22
2022-11-01T02:46:30.392Z,17.07
2022-11-01T02:49:00.421Z,16.96
2022-11-01T02:51:31.294Z,17.02
2022-11-01T02:54:02.921Z,16.93
2022-11-01T02:56:32.324Z,17.02
2022-11-01T02:59:01.631Z,17.10
2022-11-01T03:01:34.403Z,17.10
2022-11-01T03:04:04.800Z,15.79
2022-11-01T03:06:38.960Z,16.95
2022-11-01T03:09:11.523Z,16.87
2022-11-01T03:11:52.274Z,16.95
2022-11-01T03:14:25.767Z,16.79
2022-11-01T03:17:01.216Z,16.72
2022-11-01T03:19:45.599Z,16.70
2022-11-01T03:22:18.460Z,16.72
2022-11-01T03:24:51.561Z,16.52
2022-11-01T03:27:27.537Z,16.48
2022-11-01T03:30:02.939Z,16.54
2022-11-01T03:32:37.788Z,16.51
2022-11-01T03:35:12.222Z,16.44
2022-11-01T03:37:43.245Z,16.44
2022-11-01T03:40:15.314Z,16.51
2022-11-01T03:42:49.728Z,16.40
2022-11-01T03:47:57.497Z,16.52
2022-11-01T03:50:29.741Z,16.49
2022-11-01T03:52:58.477Z,16.32
2022-11-01T03:55:27.353Z,16.30
2022-11-01T03:57:57.982Z,16.45
2022-11-01T04:00:29.345Z,16.31
2022-11-01T04:02:59.500Z,16.37
2022-11-01T04:05:31.386Z,16.35
2022-11-01T04:07:59.814Z,16.34
2022-11-01T04:10:30.125Z,16.20
2022-11-01T04:12:59.283Z,16.02
2022-11-01T04:15:46.591Z,16.08
2022-11-01T04:18:35.114Z,16.07
2022-11-01T04:21:07.840Z,15.96
2022-11-01T04:23:36.883Z,16.06
2022-11-01T04:26:07.436Z,15.64
2022-11-01T04:28:35.898Z,15.85
2022-11-01T04:31:04.348Z,15.87
2022-11-01T04:33:32.734Z,15.75
2022-11-01T04:36:08.039Z,15.64
2022-11-01T04:38:36.353Z,15.44
2022-11-01T04:41:04.625Z,15.67
2022-11-01T04:43:32.911Z,15.70
2022-11-01T04:46:01.185Z,15.44
2022-11-01T04:48:29.891Z,15.47
2022-11-01T04:50:58.178Z,15.43
2022-11-01T04:53:27.912Z,15.44
2022-11-01T04:55:56.388Z,15.45
2022-11-01T04:58:24.886Z,15.36
2022-11-01T05:00:53.162Z,15.38
2022-11-01T05:03:21.541Z,15.29
2022-11-01T05:05:49.838Z,15.25
2022-11-01T05:08:18.112Z,15.19
2022-11-01T05:10:47.663Z,15.16
2022-11-01T05:13:15.957Z,15.20
2022-11-01T05:16:06.246Z,15.24
2022-11-01T05:18:32.621Z,14.93
2022-11-01T05:21:00.915Z,15.20
2022-11-01T05:23:29.220Z,15.05
2022-11-01T05:25:59.738Z,15.23
2022-11-01T05:28:28.088Z,15.18
2022-11-01T05:30:56.357Z,15.12
2022-11-01T05:33:24.704Z,15.12
2022-11-01T05:35:53.073Z,14.93
2022-11-01T05:38:24.292Z,15.05
2022-11-01T05:40:52.573Z,14.97
2022-11-01T05:43:22.202Z,15.00
2022-11-01T05:45:51.299Z,14.99
2022-11-01T05:48:19.732Z,15.00
2022-11-01T05:50:48.544Z,15.03
2022-11-01T05:53:16.978Z,14.81
2022-11-01T05:55:45.354Z,15.05
2022-11-01T05:58:13.763Z,14.97
2022-11-01T06:00:43.522Z,14.98
2022-11-01T06:03:11.884Z,14.94
2022-11-01T06:05:40.598Z,15.00
2022-11-01T06:08:09.046Z,15.03
2022-11-01T06:10:37.258Z,14.77
2022-11-01T06:13:05.939Z,14.37
2022-11-01T06:15:37.227Z,15.03
2022-11-01T06:18:09.775Z,15.09
2022-11-01T06:20:38.754Z,15.11
2022-11-01T06:23:11.953Z,15.12
2022-11-01T06:25:40.368Z,14.98
2022-11-01T06:28:08.705Z,14.95
2022-11-01T06:30:38.930Z,15.05
2022-11-01T06:33:09.590Z,15.14
2022-11-01T06:35:38.348Z,14.95
2022-11-01T06:38:08.531Z,14.81
2022-11-01T06:40:37.385Z,14.99
2022-11-01T06:43:07.365Z,15.01
2022-11-01T06:45:35.757Z,15.00
2022-11-01T06:48:04.314Z,14.82
2022-11-01T06:50:34.777Z,14.63
2022-11-01T06:53:05.975Z,14.48
2022-11-01T06:55:34.299Z,14.93
2022-11-01T06:58:04.515Z,14.82
2022-11-01T07:00:33.764Z,14.32
2022-11-01T07:03:05.561Z,15.07
2022-11-01T07:05:38.530Z,14.82
2022-11-01T07:08:09.056Z,14.97
2022-11-01T07:10:38.639Z,14.89
2022-11-01T07:13:08.874Z,15.05
2022-11-01T07:15:37.429Z,15.04
2022-11-01T07:18:08.735Z,15.11
2022-11-01T07:20:42.469Z,14.89
2022-11-01T07:23:16.031Z,15.05
2022-11-01T07:25:45.004Z,15.11
2022-11-01T07:28:13.753Z,15.11
2022-11-01T07:30:42.165Z,15.04
2022-11-01T07:33:10.718Z,15.19
2022-11-01T07:35:40.453Z,15.26
2022-11-01T07:38:13.229Z,15.06
2022-11-01T07:40:42.749Z,15.37
2022-11-01T07:43:11.302Z,15.44
2022-11-01T07:45:39.674Z,15.57
2022-11-01T07:48:12.035Z,15.35
2022-11-01T07:50:46.017Z,15.53
2022-11-01T07:53:16.757Z,15.77
2022-11-01T07:55:45.818Z,15.75
2022-11-01T07:58:16.095Z,15.40
2022-11-01T08:00:45.868Z,15.88
2022-11-01T08:03:16.624Z,15.85
2022-11-01T08:05:47.103Z,16.18
2022-11-01T08:08:16.676Z,16.07
2022-11-01T08:10:45.239Z,16.23
2022-11-01T08:13:18.354Z,16.42
2022-11-01T08:15:47.230Z,16.41
2022-11-01T08:18:16.210Z,16.46
2022-11-01T08:20:45.958Z,16.42
2022-11-01T08:23:14.438Z,16.46
2022-11-01T08:25:44.748Z,16.46
2022-11-01T08:28:15.905Z,16.58
2022-11-01T08:30:46.561Z,16.59
2022-11-01T08:33:15.351Z,16.57
2022-11-01T08:35:50.400Z,16.69
2022-11-01T08:38:19.451Z,16.70
2022-11-01T08:40:48.015Z,16.79
2022-11-01T08:43:16.529Z,16.77
2022-11-01T08:45:45.098Z,16.83
2022-11-01T08:48:13.823Z,16.70
2022-11-01T08:50:42.277Z,16.92
2022-11-01T08:53:14.293Z,17.16
2022-11-01T08:55:43.287Z,17.26
2022-11-01T08:58:12.141Z,17.52
2022-11-01T09:00:40.499Z,17.41
2022-11-01T09:03:08.826Z,17.41
2022-11-01T09:05:37.349Z,17.51
2022-11-01T09:08:06.375Z,17.68
2022-11-01T09:10:36.375Z,17.37
2022-11-01T09:13:07.022Z,17.82
2022-11-01T09:15:35.689Z,17.67
2022-11-01T09:18:07.537Z,17.70
2022-11-01T09:20:37.898Z,17.65
2022-11-01T09:23:06.459Z,17.69
2022-11-01T09:25:36.973Z,17.84
2022-11-01T09:28:05.610Z,17.88
2022-11-01T09:30:33.887Z,17.87
2022-11-01T09:33:06.021Z,17.71
2022-11-01T09:35:34.882Z,17.91
2022-11-01T09:38:04.519Z,18.04
2022-11-01T09:40:45.455Z,18.25
2022-11-01T09:43:21.966Z,18.17
2022-11-01T09:45:52.710Z,18.26
2022-11-01T09:48:21.173Z,18.27
2022-11-01T09:50:49.504Z,18.30
2022-11-01T09:53:23.396Z,18.45
2022-11-01T09:56:02.025Z,18.44
2022-11-01T09:58:43.213Z,18.41
2022-11-01T10:01:34.918Z,17.95
2022-11-01T10:04:23.628Z,18.17
2022-11-01T10:07:00.445Z,18.28
2022-11-01T10:09:39.562Z,18.13
2022-11-01T10:12:26.145Z,18.29
2022-11-01T10:15:10.703Z,18.22
2022-11-01T10:17:52.335Z,18.32
2022-11-01T10:20:24.632Z,18.54
2022-11-01T10:22:52.987Z,18.00
2022-11-01T10:25:26.555Z,18.65
2022-11-01T10:28:06.921Z,18.43
2022-11-01T10:30:41.783Z,17.63
2022-11-01T10:33:29.114Z,18.19
2022-11-01T10:36:02.446Z,18.29
2022-11-01T10:39:04.578Z,18.39
2022-11-01T10:41:37.493Z,18.36
2022-11-01T10:44:15.289Z,18.34
2022-11-01T10:46:47.191Z,18.39
2022-11-01T10:49:24.570Z,18.28
2022-11-01T10:51:57.798Z,18.37
2022-11-01T10:54:30.171Z,18.50
2022-11-01T10:57:02.726Z,18.27
2022-11-01T10:59:40.081Z,18.45
2022-11-01T11:02:17.826Z,18.32
2022-11-01T11:04:46.553Z,18.32
2022-11-01T11:07:18.600Z,17.98
2022-11-01T11:09:51.253Z,18.57
2022-11-01T11:12:22.856Z,18.53
2022-11-01T11:14:57.903Z,18.52
2022-11-01T11:17:31.183Z,18.57
2022-11-01T11:20:04.903Z,18.67
2022-11-01T11:22:39.732Z,18.85
2022-11-01T11:25:15.579Z,18.85
2022-11-01T11:27:48.526Z,18.86
2022-11-01T11:30:29.857Z,18.88
2022-11-01T11:33:02.740Z,18.86
2022-11-01T11:35:33.678Z,18.70
2022-11-01T11:38:05.028Z,18.32
2022-11-01T11:40:45.626Z,18.58
2022-11-01T11:43:23.958Z,18.44
2022-11-01T11:46:08.855Z,18.50
2022-11-01T11:48:48.444Z,18.38
2022-11-01T11:51:17.781Z,18.39
2022-11-01T11:54:10.451Z,18.70
2022-11-01T11:56:38.955Z,18.65
2022-11-01T11:59:16.905Z,18.58
2022-11-01T12:01:48.532Z,18.33
2022-11-01T12:04:19.073Z,18.67
2022-11-01T12:06:49.901Z,18.44
2022-11-01T12:09:42.670Z,18.55
2022-11-01T12:12:20.059Z,18.23
2022-11-01T12:14:48.514Z,18.34
2022-11-01T12:17:41.399Z,18.22
2022-11-01T12:20:18.237Z,18.48
2022-11-01T12:22:51.760Z,18.35
2022-11-01T12:25:24.419Z,18.19
2022-11-01T12:28:01.248Z,18.44
2022-11-01T12:30:34.627Z,18.62
2022-11-01T12:35:47.485Z,18.57
2022-11-01T12:38:40.911Z,18.31
2022-11-01T12:41:25.707Z,18.21
2022-11-01T12:44:05.249Z,18.10
2022-11-01T12:46:40.635Z,18.06
2022-11-01T12:49:20.320Z,18.00
2022-11-01T12:51:54.548Z,17.90
2022-11-01T12:54:29.244Z,18.31
2022-11-01T12:56:58.423Z,18.42
2022-11-01T12:59:37.123Z,18.34
2022-11-01T13:02:27.831Z,17.52
2022-11-01T13:05:04.250Z,18.45
2022-11-01T13:07:47.824Z,18.51
2022-11-01T13:10:27.511Z,18.48
2022-11-01T13:13:05.708Z,18.55
2022-11-01T13:15:47.274Z,18.35
2022-11-01T13:18:22.924Z,18.41
2022-11-01T13:21:00.899Z,18.66
2022-11-01T13:23:37.122Z,18.68
2022-11-01T13:26:14.173Z,18.64
2022-11-01T13:28:58.427Z,18.80
2022-11-01T13:31:51.393Z,18.79
2022-11-01T13:34:34.168Z,18.97
2022-11-01T13:37:12.063Z,18.96
2022-11-01T13:39:55.296Z,18.77
2022-11-01T13:42:32.624Z,18.65
2022-11-01T13:45:23.734Z,18.89
2022-11-01T13:47:58.039Z,18.76
2022-11-01T13:50:56.501Z,18.50
2022-11-01T13:53:35.972Z,18.50
2022-11-01T13:56:09.644Z,18.34
2022-11-01T13:58:38.555Z,18.37
2022-11-01T14:01:32.108Z,18.28
2022-11-01T14:04:55.907Z,18.16
2022-11-01T14:07:24.428Z,18.00
2022-11-01T14:09:55.288Z,17.99
2022-11-01T14:12:43.327Z,17.97
2022-11-01T14:15:25.026Z,18.19
2022-11-01T14:18:04.523Z,17.43
2022-11-01T14:20:53.430Z,18.15
2022-11-01T14:24:02.536Z,18.16
2022-11-01T14:27:10.377Z,17.99
2022-11-01T14:29:38.860Z,17.98
2022-11-01T14:32:09.324Z,17.87
2022-11-01T14:34:41.641Z,17.98
2022-11-01T14:37:40.873Z,17.83
2022-11-01T14:40:30.560Z,17.66
2022-11-01T14:43:06.272Z,17.79
2022-11-01T14:45:38.437Z,17.71
2022-11-01T14:48:17.005Z,17.27
2022-11-01T14:50:56.978Z,17.68
2022-11-01T14:53:30.301Z,17.60
2022-11-01T14:56:15.465Z,17.75
2022-11-01T14:58:45.700Z,17.84
2022-11-01T15:01:17.375Z,17.82
2022-11-01T15:03:58.109Z,17.78
2022-11-01T15:06:29.007Z,17.78
2022-11-01T15:08:59.441Z,17.43
2022-11-01T15:11:29.438Z,17.68
2022-11-01T15:14:04.756Z,17.71
2022-11-01T15:16:36.654Z,17.50
2022-11-01T15:19:10.880Z,17.64
2022-11-01T15:21:46.943Z,17.62
2022-11-01T15:24:25.767Z,17.35
2022-11-01T15:26:54.864Z,17.46
2022-11-01T15:29:25.990Z,17.35
2022-11-01T15:32:00.636Z,17.38
2022-11-01T15:34:32.121Z,17.51
2022-11-01T15:37:11.609Z,17.47
2022-11-01T15:39:42.752Z,17.25
2022-11-01T15:42:20.288Z,17.36
2022-11-01T15:44:50.082Z,17.38
2022-11-01T15:47:22.639Z,17.31
2022-11-01T15:49:56.580Z,17.23
2022-11-01T15:52:30.293Z,17.26
2022-11-01T15:55:05.849Z,17.33
2022-11-01T15:57:39.429Z,17.11
2022-11-01T16:00:18.665Z,17.23
2022-11-01T16:02:52.628Z,17.13
2022-11-01T16:05:29.952Z,17.20
2022-11-01T16:07:59.007Z,17.12
2022-11-01T16:10:30.069Z,17.04
2022-11-01T16:13:00.463Z,17.08
2022-11-01T16:15:33.048Z,17.11
2022-11-01T16:18:03.443Z,17.10
2022-11-01T16:20:37.136Z,16.95
2022-11-01T16:23:07.158Z,17.01
2022-11-01T16:25:38.143Z,16.92
2022-11-01T16:28:33.010Z,16.62
2022-11-01T16:31:04.252Z,17.05
2022-11-01T16:33:45.329Z,17.09
2022-11-01T16:36:38.093Z,17.07
2022-11-01T16:39:29.379Z,16.94
2022-11-01T16:41:59.086Z,16.88
2022-11-01T16:44:27.896Z,17.03
2022-11-01T16:46:57.717Z,16.99
2022-11-01T16:49:29.075Z,16.94
2022-11-01T16:51:57.518Z,16.76
2022-11-01T16:54:26.261Z,16.96
2022-11-01T16:56:58.390Z,16.87
2022-11-01T16:59:39.007Z,16.41
2022-11-01T17:02:19.257Z,16.79
2022-11-01T17:04:51.620Z,16.21
2022-11-01T17:07:20.291Z,16.72
2022-11-01T17:09:48.678Z,16.49
2022-11-01T17:12:17.223Z,16.72
2022-11-01T17:14:46.494Z,15.74
2022-11-01T17:17:19.681Z,16.82
2022-11-01T17:19:54.540Z,17.01
2022-11-01T17:22:37.639Z,16.99
2022-11-01T17:25:08.053Z,16.78
2022-11-01T17:27:36.491Z,16.87
2022-11-01T17:30:05.738Z,16.97
2022-11-01T17:32:35.585Z,16.57
2022-11-01T17:35:04.042Z,16.42
2022-11-01T17:37:36.715Z,16.98
2022-11-01T17:40:15.876Z,16.91
2022-11-01T17:42:44.385Z,16.68
2022-11-01T17:45:13.425Z,16.72
2022-11-01T17:47:43.140Z,16.61
2022-11-01T17:50:15.246Z,16.69
2022-11-01T17:52:44.405Z,15.87
2022-11-01T17:55:13.810Z,16.82
2022-11-01T17:57:43.524Z,16.79
2022-11-01T18:00:13.316Z,16.85
2022-11-01T18:02:44.969Z,16.61
2022-11-01T18:05:14.297Z,16.45
2022-11-01T18:07:49.559Z,16.82
2022-11-01T18:10:20.673Z,16.78
2022-11-01T18:13:10.449Z,16.56
2022-11-01T18:15:45.363Z,16.58
2022-11-01T18:18:30.375Z,16.43
2022-11-01T18:21:13.476Z,16.46
2022-11-01T18:23:46.256Z,16.36
2022-11-01T18:26:21.479Z,15.28
2022-11-01T18:28:50.139Z,15.76
2022-11-01T18:31:25.181Z,16.29
2022-11-01T18:34:01.642Z,16.13
2022-11-01T18:36:35.168Z,16.12
2022-11-01T18:39:16.346Z,16.08
2022-11-01T18:41:47.123Z,16.17
2022-11-01T18:44:15.891Z,16.15
2022-11-01T18:46:53.323Z,16.20
2022-11-01T18:49:27.990Z,16.24
2022-11-01T18:51:57.148Z,15.92
2022-11-01T18:54:28.370Z,16.24
2022-11-01T18:56:59.122Z,16.15
2022-11-01T18:59:30.210Z,16.21
2022-11-01T19:02:01.795Z,16.19
2022-11-01T19:04:35.565Z,16.23
2022-11-01T19:07:12.469Z,16.10
2022-11-01T19:09:43.900Z,15.94
2022-11-01T19:12:16.328Z,15.75
2022-11-01T19:14:45.217Z,15.87
2022-11-01T19:17:20.453Z,15.75
2022-11-01T19:19:51.258Z,15.77
2022-11-01T19:22:38.145Z,15.64
2022-11-01T19:25:17.844Z,15.58
2022-11-01T19:27:46.306Z,15.36
2022-11-01T19:30:22.236Z,15.42
2022-11-01T19:32:51.222Z,14.81
2022-11-01T19:35:22.614Z,15.47
2022-11-01T19:37:52.010Z,15.50
2022-11-01T19:40:28.452Z,15.53
2022-11-01T19:42:58.892Z,15.64
2022-11-01T19:45:34.273Z,15.62
2022-11-01T19:48:04.801Z,14.23
2022-11-01T19:50:39.456Z,15.78
2022-11-01T19:53:17.929Z,15.88
2022-11-01T19:55:51.119Z,15.88
2022-11-01T19:58:25.910Z,15.88
2022-11-01T20:01:32.683Z,15.97
2022-11-01T20:04:02.499Z,15.61
2022-11-01T20:06:35.386Z,15.54
2022-11-01T20:09:06.821Z,15.37
2022-11-01T20:11:35.109Z,15.32
2022-11-01T20:14:03.598Z,15.37
2022-11-01T20:16:31.984Z,15.25
2022-11-01T20:19:00.529Z,15.41
2022-11-01T20:21:28.886Z,15.32
2022-11-01T20:23:59.529Z,15.34
2022-11-01T20:26:27.932Z,15.13
2022-11-01T20:28:56.150Z,15.29
2022-11-01T20:31:25.097Z,15.24
2022-11-01T20:33:53.414Z,14.51
2022-11-01T20:36:22.291Z,15.06
2022-11-01T20:38:50.618Z,15.16
2022-11-01T20:41:20.196Z,15.11
2022-11-01T20:43:48.871Z,15.06
2022-11-01T20:46:17.411Z,15.03
2022-11-01T20:48:46.270Z,13.40
2022-11-01T20:51:14.696Z,14.84
2022-11-01T20:53:42.874Z,15.00
2022-11-01T20:56:11.015Z,14.85
2022-11-01T20:58:40.916Z,14.90
2022-11-01T21:01:16.093Z,14.85
2022-11-01T21:03:44.532Z,14.61
2022-11-01T21:06:14.454Z,14.69
2022-11-01T21:08:45.002Z,14.83
2022-11-01T21:11:16.371Z,14.76
2022-11-01T21:13:46.856Z,14.74
2022-11-01T21:16:21.353Z,14.79
2022-11-01T21:18:52.349Z,14.90
2022-11-01T21:21:42.472Z,14.90
2022-11-01T21:24:31.735Z,14.83
2022-11-01T21:27:23.067Z,14.85
2022-11-01T21:29:53.315Z,14.91
2022-11-01T21:32:27.200Z,14.93
2022-11-01T21:34:55.414Z,14.66
2022-11-01T21:37:23.961Z,14.92
2022-11-01T21:39:58.944Z,14.63
2022-11-01T21:42:32.844Z,14.78
2022-11-01T21:45:16.884Z,14.71
2022-11-01T21:47:45.852Z,14.81
2022-11-01T21:50:14.199Z,14.81
2022-11-01T21:52:42.381Z,14.89
2022-11-01T21:55:10.650Z,14.72
2022-11-01T21:57:39.012Z,14.64
2022-11-01T22:00:10.628Z,14.29
2022-11-01T22:02:38.923Z,14.88
2022-11-01T22:05:07.871Z,14.84
2022-11-01T22:07:36.023Z,14.81
2022-11-01T22:10:04.792Z,14.76
2022-11-01T22:12:33.235Z,14.10
2022-11-01T22:15:01.374Z,14.98
2022-11-01T22:17:31.489Z,14.98
2022-11-01T22:19:59.736Z,14.87
2022-11-01T22:22:27.945Z,14.93
2022-11-01T22:24:56.271Z,14.97
2022-11-01T22:27:24.410Z,14.87
2022-11-01T22:29:52.542Z,14.49
2022-11-01T22:32:20.871Z,14.79
2022-11-01T22:34:50.483Z,14.05
2022-11-01T22:37:18.757Z,14.52
2022-11-01T22:39:52.896Z,14.54
2022-11-01T22:42:22.088Z,14.35
2022-11-01T22:44:50.608Z,14.66
2022-11-01T22:47:23.779Z,14.60
2022-11-01T22:49:54.647Z,14.46
2022-11-01T22:52:30.419Z,14.16
2022-11-01T22:55:02.878Z,14.47
2022-11-01T22:57:35.094Z,14.49
2022-11-01T23:00:27.189Z,14.59
2022-11-01T23:03:00.369Z,14.55
2022-11-01T23:05:30.083Z,14.55
2022-11-01T23:07:59.451Z,14.61
2022-11-01T23:10:30.242Z,14.62
2022-11-01T23:13:22.314Z,14.30
2022-11-01T23:15:52.392Z,14.64
2022-11-01T23:18:22.619Z,14.66
2022-11-01T23:20:55.688Z,14.69
2022-11-01T23:23:25.111Z,14.42
2022-11-01T23:25:54.624Z,14.57
2022-11-01T23:28:23.051Z,14.57
2022-11-01T23:30:51.767Z,14.69
2022-11-01T23:33:21.630Z,14.72
2022-11-01T23:35:53.634Z,14.50
2022-11-01T23:38:23.711Z,14.67
2022-11-01T23:40:53.986Z,14.50
2022-11-01T23:43:24.352Z,14.44
2022-11-01T23:45:53.397Z,14.44
2022-11-01T23:48:22.992Z,14.40
2022-11-01T23:50:54.031Z,14.33
2022-11-01T23:53:26.412Z,14.42
2022-11-01T23:55:55.565Z,14.36
2022-11-01T23:58:27.026Z,14.25
